Time;durP1;ratioP1;P1;durP2;ratioP2;P2;SDS_P1;SDS_P2;PMS_P1;PMS_P2;Temp;Humidity;BMP_temperature;BMP_pressure;BME280_temperature;BME280_humidity;BME280_pressure;Samples;Min_cycle;Max_cycle;Signal;HPM_P1;HPM_P2
2020/12/07 00:00:22;;;;;;;49.20;28.98;;;;;;;8.56;82.56;100336.09;5045580;28;20033;-75
2020/12/07 00:02:48;;;;;;;47.97;27.08;;;;;;;8.56;82.76;100338.00;5041868;28;20053;-75
2020/12/07 00:05:13;;;;;;;41.53;26.20;;;;;;;8.55;82.47;100339.13;5049487;28;20024;-75
2020/12/07 00:07:38;;;;;;;50.35;30.38;;;;;;;8.54;82.39;100345.63;5051978;28;20033;-76
2020/12/07 00:10:04;;;;;;;45.95;28.30;;;;;;;8.54;82.76;100338.31;5043478;28;20029;-76
2020/12/07 00:12:30;;;;;;;46.47;28.75;;;;;;;8.55;82.73;100336.41;5049577;28;20489;-76
2020/12/07 00:14:56;;;;;;;46.30;27.73;;;;;;;8.53;82.25;100339.38;5083495;28;20036;-75
2020/12/07 00:17:22;;;;;;;46.20;27.25;;;;;;;8.54;82.50;100345.63;5050852;28;20017;-76
2020/12/07 00:19:48;;;;;;;44.13;27.00;;;;;;;8.52;82.75;100336.94;5031431;28;20026;-75
2020/12/07 00:22:21;;;;;;;42.00;25.90;;;;;;;8.49;82.56;100329.34;5033549;28;20032;-76
2020/12/07 00:24:46;;;;;;;49.40;27.13;;;;;;;8.46;82.62;100327.97;5049869;28;20025;-76
2020/12/07 00:27:12;;;;;;;45.17;26.88;;;;;;;8.43;82.46;100328.53;5051206;28;20044;-76
2020/12/07 00:29:37;;;;;;;45.25;27.15;;;;;;;8.40;82.48;100324.44;5046701;28;20033;-76
2020/12/07 00:32:02;;;;;;;43.33;25.90;;;;;;;8.40;83.12;100320.88;5055820;28;20028;-76
2020/12/07 00:34:28;;;;;;;45.13;26.85;;;;;;;8.40;82.72;100320.88;5049758;28;20387;-76
2020/12/07 00:36:53;;;;;;;41.10;25.55;;;;;;;8.38;82.46;100310.28;5049120;28;20029;-75
2020/12/07 00:39:19;;;;;;;44.72;24.50;;;;;;;8.34;82.55;100306.47;5050817;28;20356;-76
2020/12/07 00:41:44;;;;;;;42.95;26.52;;;;;;;8.30;82.69;100310.81;5047481;28;20036;-76
2020/12/07 00:44:09;;;;;;;41.80;25.55;;;;;;;8.26;82.93;100315.13;5051525;28;20028;-76
2020/12/07 00:46:35;;;;;;;48.50;27.80;;;;;;;8.21;82.85;100315.97;5051221;28;20020;-76
2020/12/07 00:49:00;;;;;;;42.20;23.70;;;;;;;8.20;82.84;100317.03;5041210;28;20037;-76
2020/12/07 00:51:25;;;;;;;47.85;26.73;;;;;;;8.22;82.53;100311.34;5043292;28;20195;-76
2020/12/07 00:53:51;;;;;;;44.65;26.02;;;;;;;8.25;82.63;100301.84;5049258;28;20032;-77
2020/12/07 00:56:16;;;;;;;41.97;25.88;;;;;;;8.27;82.73;100300.50;5046605;28;20101;-76
2020/12/07 00:58:42;;;;;;;44.38;25.88;;;;;;;8.30;82.74;100289.09;5050555;28;20035;-76
2020/12/07 01:01:07;;;;;;;46.97;25.65;;;;;;;8.31;83.00;100279.84;5043781;28;20033;-76
2020/12/07 01:03:32;;;;;;;42.22;25.17;;;;;;;8.31;82.68;100273.59;5044845;28;20021;-77
2020/12/07 01:05:58;;;;;;;42.17;25.42;;;;;;;8.31;82.80;100268.16;5050345;28;20040;-76
2020/12/07 01:08:23;;;;;;;45.45;26.02;;;;;;;8.29;82.91;100268.44;5040550;28;20082;-77
2020/12/07 01:10:54;;;;;;;40.42;24.80;;;;;;;8.28;82.62;100269.53;5050854;28;20025;-77
2020/12/07 01:13:20;;;;;;;41.28;24.63;;;;;;;8.29;82.97;100265.72;5036344;28;20382;-77
2020/12/07 01:15:45;;;;;;;42.35;24.98;;;;;;;8.29;82.95;100270.34;5050769;28;20025;-77
2020/12/07 01:18:11;;;;;;;43.40;25.05;;;;;;;8.30;83.01;100283.66;5048294;28;20025;-77
2020/12/07 01:20:36;;;;;;;43.90;25.70;;;;;;;8.32;82.70;100286.94;5043969;28;20560;-77
2020/12/07 01:23:01;;;;;;;42.85;24.63;;;;;;;8.33;82.69;100277.69;5049710;28;20036;-77
2020/12/07 01:25:27;;;;;;;37.05;23.00;;;;;;;8.34;82.86;100284.72;5047228;28;20363;-77
2020/12/07 01:27:52;;;;;;;44.80;25.13;;;;;;;8.37;82.74;100286.91;5054059;28;20029;-77
2020/12/07 01:30:17;;;;;;;45.35;24.25;;;;;;;8.38;82.91;100280.41;5048149;28;20021;-77
2020/12/07 01:32:43;;;;;;;38.40;23.23;;;;;;;8.38;82.98;100280.41;5049987;28;20024;-77
2020/12/07 01:35:08;;;;;;;44.35;25.08;;;;;;;8.39;82.72;100276.63;5039671;28;20398;-77
2020/12/07 01:37:34;;;;;;;44.97;24.30;;;;;;;8.39;82.55;100267.66;5049414;28;20075;-76
2020/12/07 01:39:59;;;;;;;39.40;23.33;;;;;;;8.41;82.69;100260.06;5052330;28;20071;-76
2020/12/07 01:42:24;;;;;;;41.60;24.25;;;;;;;8.42;82.99;100259.78;5054853;28;20471;-76
2020/12/07 01:44:50;;;;;;;44.47;24.40;;;;;;;8.43;82.60;100260.63;5050495;28;20028;-76
2020/12/07 01:47:27;;;;;;;44.72;24.88;;;;;;;8.43;82.84;100261.41;5054032;28;20497;-77
2020/12/07 01:49:52;;;;;;;40.70;24.27;;;;;;;8.44;82.78;100271.19;5031575;28;20052;-77
2020/12/07 01:52:20;;;;;;;41.33;24.52;;;;;;;8.43;82.58;100272.28;5026457;28;20104;-76
2020/12/07 01:54:46;;;;;;;40.20;24.00;;;;;;;8.44;82.56;100263.03;5066980;28;20103;-77
2020/12/07 01:57:11;;;;;;;43.92;24.38;;;;;;;8.44;82.47;100263.03;5055018;28;20100;-77
2020/12/07 01:59:37;;;;;;;37.97;22.15;;;;;;;8.43;82.62;100249.75;5048684;28;20316;-76
2020/12/07 02:02:02;;;;;;;43.78;25.45;;;;;;;8.43;82.74;100249.75;5042105;28;20486;-76
2020/12/07 02:04:27;;;;;;;41.47;23.45;;;;;;;8.41;82.87;100244.56;5039295;28;20026;-77
2020/12/07 02:06:53;;;;;;;38.67;22.92;;;;;;;8.40;82.71;100240.25;5049078;28;20025;-76
2020/12/07 02:09:25;;;;;;;39.70;23.20;;;;;;;8.40;82.71;100239.41;5044769;28;20078;-76
2020/12/07 02:11:50;;;;;;;35.67;22.02;;;;;;;8.40;82.72;100242.97;5046973;28;20096;-76
2020/12/07 02:14:15;;;;;;;35.38;21.15;;;;;;;8.41;82.88;100246.47;5045247;28;20478;-76
2020/12/07 02:16:41;;;;;;;34.42;22.27;;;;;;;8.41;82.41;100254.63;5049211;28;20051;-77
2020/12/07 02:19:06;;;;;;;37.17;22.83;;;;;;;8.39;82.73;100260.31;5047909;28;20025;-77
2020/12/07 02:21:32;;;;;;;37.00;21.88;;;;;;;8.41;82.68;100257.34;5041289;28;20021;-77
2020/12/07 02:23:57;;;;;;;38.05;22.25;;;;;;;8.40;82.77;100261.97;5049239;28;20025;-77
2020/12/07 02:26:22;;;;;;;36.83;20.27;;;;;;;8.40;82.77;100264.69;5044189;28;20391;-77
2020/12/07 02:28:51;;;;;;;38.30;22.20;;;;;;;8.40;82.48;100256.53;5039281;28;20029;-76
2020/12/07 02:31:16;;;;;;;37.25;22.00;;;;;;;8.40;82.49;100255.69;5045516;28;20048;-76
2020/12/07 02:33:42;;;;;;;33.63;20.85;;;;;;;8.40;82.56;100256.53;5039580;28;20025;-77
2020/12/07 02:36:10;;;;;;;38.72;23.13;;;;;;;8.40;82.59;100261.13;5066407;28;20082;-77
2020/12/07 02:38:36;;;;;;;32.80;21.35;;;;;;;8.40;82.84;100255.69;5047172;28;20033;-77
2020/12/07 02:41:01;;;;;;;40.17;22.15;;;;;;;8.40;82.66;100258.41;5050246;28;20037;-77
2020/12/07 02:43:27;;;;;;;35.58;22.10;;;;;;;8.39;82.74;100252.16;5026211;28;20025;-77
2020/12/07 02:45:52;;;;;;;35.80;21.95;;;;;;;8.38;82.63;100260.56;5038400;28;20055;-77
2020/12/07 02:48:18;;;;;;;35.50;21.17;;;;;;;8.38;82.54;100252.44;5037797;28;20072;-78
2020/12/07 02:50:43;;;;;;;35.75;22.40;;;;;;;8.38;82.34;100257.88;5039374;28;20031;-77
2020/12/07 02:53:08;;;;;;;36.22;20.73;;;;;;;8.38;82.33;100263.28;5047042;28;20036;-77
2020/12/07 02:55:34;;;;;;;41.08;23.02;;;;;;;8.38;82.42;100269.53;5051428;28;20532;-77
2020/12/07 02:57:59;;;;;;;33.10;21.27;;;;;;;8.38;82.46;100266.81;5045397;28;20058;-77
2020/12/07 03:00:25;;;;;;;36.10;22.60;;;;;;;8.37;82.35;100257.03;5043355;28;20528;-77
2020/12/07 03:02:50;;;;;;;35.75;21.02;;;;;;;8.36;82.30;100244.53;5060895;28;20039;-77
2020/12/07 03:05:16;;;;;;;33.30;21.42;;;;;;;8.35;82.46;100242.94;5076173;28;20470;-77
2020/12/07 03:07:41;;;;;;;34.75;21.20;;;;;;;8.35;82.44;100226.63;5029123;28;20056;-77
2020/12/07 03:10:06;;;;;;;37.40;22.60;;;;;;;8.33;82.49;100242.38;5049425;28;20078;-77
2020/12/07 03:12:32;;;;;;;34.25;20.38;;;;;;;8.32;82.53;100251.63;5040334;28;20499;-77
2020/12/07 03:14:57;;;;;;;34.63;22.02;;;;;;;8.32;82.59;100242.63;5047217;28;20029;-77
2020/12/07 03:17:22;;;;;;;34.55;21.05;;;;;;;8.31;82.55;100236.41;5044401;28;20391;-77
2020/12/07 03:19:48;;;;;;;35.90;21.75;;;;;;;8.31;82.57;100239.09;5043203;28;20036;-77
2020/12/07 03:22:13;;;;;;;40.00;23.50;;;;;;;8.31;82.22;100247.25;5035154;28;20021;-77
2020/12/07 03:24:39;;;;;;;36.00;21.23;;;;;;;8.31;82.37;100249.16;5043812;28;20032;-77
2020/12/07 03:27:04;;;;;;;40.75;21.27;;;;;;;8.31;82.10;100236.41;5040671;28;20039;-77
2020/12/07 03:29:29;;;;;;;39.38;22.00;;;;;;;8.31;82.05;100243.72;5046822;28;20021;-77
2020/12/07 03:31:55;;;;;;;35.65;22.92;;;;;;;8.31;82.27;100239.09;5047582;28;20382;-75
2020/12/07 03:34:20;;;;;;;38.08;22.10;;;;;;;8.31;82.41;100244.53;5043875;28;20514;-75
2020/12/07 03:36:46;;;;;;;36.13;22.45;;;;;;;8.31;82.15;100238.31;5051828;28;20493;-75
2020/12/07 03:39:11;;;;;;;34.80;20.73;;;;;;;8.29;82.13;100233.13;5048874;28;20478;-76
2020/12/07 03:41:37;;;;;;;32.85;20.88;;;;;;;8.29;82.05;100233.13;5051851;28;20045;-76
2020/12/07 03:44:02;;;;;;;34.38;20.98;;;;;;;8.29;82.06;100230.41;5043391;28;20029;-76
2020/12/07 03:46:28;;;;;;;33.05;20.58;;;;;;;8.29;82.22;100224.16;5049172;28;20454;-76
2020/12/07 03:48:53;;;;;;;36.13;20.60;;;;;;;8.28;81.71;100220.66;5046528;28;20025;-76
2020/12/07 03:51:19;;;;;;;32.15;20.23;;;;;;;8.27;82.14;100224.47;5033868;28;20032;-75
2020/12/07 03:53:44;;;;;;;30.73;19.27;;;;;;;8.27;82.24;100220.94;5043045;28;20040;-76
2020/12/07 03:56:10;;;;;;;35.90;22.52;;;;;;;8.27;81.95;100229.09;5061966;28;20025;-75
2020/12/07 03:58:35;;;;;;;36.88;21.23;;;;;;;8.25;82.43;100233.97;5047560;28;20021;-75
2020/12/07 04:01:01;;;;;;;31.17;20.77;;;;;;;8.26;82.11;100227.44;5032960;28;20036;-75
2020/12/07 04:03:28;;;;;;;34.92;20.00;;;;;;;8.26;81.94;100239.09;5050144;28;20021;-75
2020/12/07 04:08:28;;;;;;;35.05;18.75;;;;;;;8.23;82.21;100235.03;5050041;28;20482;-76
2020/12/07 04:10:54;;;;;;;33.00;19.40;;;;;;;8.22;81.97;100232.59;5051958;28;20055;-76
2020/12/07 04:13:19;;;;;;;33.72;20.45;;;;;;;8.21;81.88;100239.94;5050299;28;20028;-75
2020/12/07 04:15:45;;;;;;;33.03;19.80;;;;;;;8.20;81.91;100251.06;5046732;28;20028;-76
2020/12/07 04:18:10;;;;;;;32.00;20.15;;;;;;;8.19;82.05;100244.00;5038484;28;20029;-75
2020/12/07 04:20:35;;;;;;;31.95;20.15;;;;;;;8.18;82.02;100231.50;5065079;28;20033;-75
2020/12/07 04:23:01;;;;;;;30.65;17.63;;;;;;;8.18;81.83;100237.78;5047923;28;20029;-75
2020/12/07 04:25:26;;;;;;;34.25;20.73;;;;;;;8.17;81.95;100238.03;5045657;28;20036;-75
2020/12/07 04:27:52;;;;;;;33.25;19.52;;;;;;;8.17;81.83;100216.31;5049891;28;20037;-75
2020/12/07 04:30:17;;;;;;;35.20;20.52;;;;;;;8.16;82.01;100233.69;5050501;28;20436;-75
2020/12/07 04:32:42;;;;;;;32.22;19.45;;;;;;;8.15;81.90;100232.03;5050187;28;20063;-75
2020/12/07 04:35:08;;;;;;;32.63;19.23;;;;;;;8.14;81.68;100231.25;5030189;28;20513;-75
2020/12/07 04:37:33;;;;;;;30.88;19.20;;;;;;;8.15;81.75;100226.63;5042276;28;20041;-75
2020/12/07 04:39:59;;;;;;;30.77;18.52;;;;;;;8.13;81.77;100220.63;5048310;28;20036;-76
2020/12/07 04:42:24;;;;;;;29.88;18.23;;;;;;;8.13;81.67;100226.06;5049695;28;20092;-75
2020/12/07 04:44:50;;;;;;;30.95;19.20;;;;;;;8.13;81.75;100228.78;5048652;28;20025;-75
2020/12/07 04:47:16;;;;;;;32.50;19.75;;;;;;;8.12;81.75;100224.44;5044286;28;20020;-75
2020/12/07 04:49:42;;;;;;;32.40;20.05;;;;;;;8.10;81.88;100224.75;5042844;28;20021;-75
2020/12/07 04:52:08;;;;;;;33.83;19.33;;;;;;;8.10;81.87;100221.19;5039091;28;20079;-75
2020/12/07 04:54:34;;;;;;;30.65;19.08;;;;;;;8.09;81.84;100214.13;5044777;28;20029;-75
2020/12/07 04:56:59;;;;;;;23.92;17.25;;;;;;;8.09;82.04;100214.13;5046630;28;20025;-76
2020/12/07 04:59:25;;;;;;;33.25;19.33;;;;;;;8.09;81.87;100212.22;5030807;28;20458;-76
2020/12/07 05:01:50;;;;;;;33.38;18.95;;;;;;;8.09;81.45;100211.41;5046564;28;20029;-75
2020/12/07 05:04:16;;;;;;;28.90;17.98;;;;;;;8.10;81.74;100207.59;5084600;28;20028;-75
2020/12/07 05:06:41;;;;;;;30.60;18.27;;;;;;;8.09;81.80;100216.84;5051899;28;20056;-76
2020/12/07 05:09:07;;;;;;;30.65;18.92;;;;;;;8.08;81.32;100216.03;5043640;28;20037;-75
2020/12/07 05:11:32;;;;;;;25.60;17.98;;;;;;;8.08;81.67;100212.53;5070277;28;20032;-76
2020/12/07 05:14:12;;;;;;;32.08;18.13;;;;;;;8.08;81.30;100207.91;5052785;28;20040;-76
2020/12/07 05:16:37;;;;;;;29.15;16.23;;;;;;;8.08;81.40;100207.91;5043427;28;20095;-76
2020/12/07 05:19:08;;;;;;;26.65;17.33;;;;;;;8.08;81.79;100209.81;5051087;28;20478;-76
2020/12/07 05:21:34;;;;;;;26.70;16.90;;;;;;;8.07;81.46;100202.72;5050270;28;20108;-76
2020/12/07 05:23:59;;;;;;;31.73;17.67;;;;;;;8.06;81.49;100206.53;5049760;28;20029;-76
2020/12/07 05:26:26;;;;;;;28.00;18.10;;;;;;;8.05;81.56;100204.88;5049023;28;20029;-77
2020/12/07 05:28:53;;;;;;;26.55;17.40;;;;;;;8.05;81.75;100203.00;5037161;28;20033;-77
2020/12/07 05:31:21;;;;;;;27.98;17.63;;;;;;;8.04;81.57;100198.66;5032399;28;20025;-77
2020/12/07 05:33:47;;;;;;;26.73;16.00;;;;;;;8.03;81.29;100209.78;5050254;28;20053;-77
2020/12/07 05:36:14;;;;;;;25.00;17.08;;;;;;;8.02;81.41;100211.69;5086949;28;20063;-76
2020/12/07 05:38:39;;;;;;;32.25;17.63;;;;;;;8.04;81.28;100219.56;5053019;28;20082;-76
2020/12/07 05:41:05;;;;;;;32.38;16.88;;;;;;;8.03;81.20;100212.50;5053842;28;20025;-76
2020/12/07 05:43:31;;;;;;;32.55;18.95;;;;;;;8.01;81.33;100205.44;5049622;28;20035;-77
2020/12/07 05:45:57;;;;;;;26.77;17.48;;;;;;;8.00;81.47;100219.28;5044210;28;20032;-76
2020/12/07 05:48:23;;;;;;;24.52;15.23;;;;;;;7.99;81.11;100218.47;5053774;28;20362;-76
2020/12/07 05:50:48;;;;;;;27.67;18.30;;;;;;;7.97;81.15;100220.66;5037209;28;20032;-76
2020/12/07 05:53:13;;;;;;;28.77;17.05;;;;;;;7.98;81.30;100211.41;5065292;28;20056;-76
2020/12/07 05:55:39;;;;;;;25.52;15.80;;;;;;;7.97;81.12;100220.66;5048891;28;20474;-77
2020/12/07 05:58:09;;;;;;;26.20;16.13;;;;;;;7.97;81.44;100217.13;5052220;28;20024;-76
2020/12/07 06:00:35;;;;;;;26.45;15.38;;;;;;;7.96;81.22;100208.13;5041159;28;20044;-77
2020/12/07 06:03:02;;;;;;;25.75;16.33;;;;;;;7.95;80.92;100211.94;5040039;28;20025;-76
2020/12/07 06:05:28;;;;;;;25.98;16.67;;;;;;;7.94;81.05;100207.63;5048103;28;20029;-76
2020/12/07 06:08:11;;;;;;;25.55;16.27;;;;;;;7.91;80.91;100199.19;5054283;28;20122;-76
2020/12/07 06:10:54;;;;;;;26.70;16.63;;;;;;;7.88;81.02;100200.53;5042310;28;20029;-76
2020/12/07 06:13:20;;;;;;;25.65;15.70;;;;;;;7.87;81.21;100204.34;5082948;28;20032;-77
2020/12/07 06:15:50;;;;;;;26.40;16.23;;;;;;;7.86;81.28;100202.72;5043377;28;20033;-77
2020/12/07 06:18:29;;;;;;;27.70;16.30;;;;;;;7.84;81.07;100210.31;5019998;28;20433;-76
2020/12/07 06:21:15;;;;;;;25.30;16.83;;;;;;;7.82;81.00;100212.47;5068909;28;20057;-76
2020/12/07 06:23:41;;;;;;;24.45;14.68;;;;;;;7.79;81.34;100207.59;5035675;28;20390;-76
2020/12/07 06:26:07;;;;;;;26.02;15.20;;;;;;;7.80;80.99;100203.78;5034290;28;20025;-76
2020/12/07 06:28:35;;;;;;;31.75;17.20;;;;;;;7.79;81.25;100199.44;5052031;28;20494;-76
2020/12/07 06:31:03;;;;;;;28.00;17.17;;;;;;;7.82;81.08;100211.66;5047749;28;20029;-77
2020/12/07 06:33:29;;;;;;;28.83;15.88;;;;;;;7.82;81.16;100209.75;5049653;28;20052;-76
2020/12/07 06:35:55;;;;;;;29.95;17.27;;;;;;;7.82;81.35;100201.63;5053046;28;20410;-76
2020/12/07 06:38:20;;;;;;;26.65;15.18;;;;;;;7.84;81.13;100204.88;5030352;28;20026;-76
2020/12/07 06:40:50;;;;;;;27.05;16.05;;;;;;;7.85;80.96;100220.06;5046880;28;20029;-76
2020/12/07 06:43:21;;;;;;;26.92;16.95;;;;;;;7.85;80.89;100220.06;5052226;28;20471;-76
2020/12/07 06:45:46;;;;;;;28.50;16.70;;;;;;;7.86;81.18;100224.44;5047548;28;20044;-77
2020/12/07 06:48:14;;;;;;;27.30;16.50;;;;;;;7.86;80.98;100207.34;5050804;28;20025;-76
2020/12/07 06:50:40;;;;;;;27.95;16.38;;;;;;;7.85;80.81;100211.94;5050360;28;20033;-76
2020/12/07 06:55:53;;;;;;;23.77;15.52;;;;;;;7.86;81.20;100199.22;5050400;28;20025;-77
2020/12/07 06:58:34;;;;;;;24.85;15.25;;;;;;;7.85;80.92;100201.09;5050459;28;20374;-76
2020/12/07 07:01:09;;;;;;;30.88;17.08;;;;;;;7.84;80.85;100196.75;5051627;28;20482;-77
2020/12/07 07:03:34;;;;;;;22.95;15.32;;;;;;;7.85;81.06;100201.09;5048487;28;20074;-77
2020/12/07 07:06:09;;;;;;;23.67;16.05;;;;;;;7.83;80.97;100211.41;5030358;28;20064;-76
2020/12/07 07:08:37;;;;;;;24.98;16.25;;;;;;;7.82;81.04;100217.09;5071252;28;20208;-76
2020/12/07 07:11:08;;;;;;;22.63;14.35;;;;;;;7.81;80.68;100216.28;5030223;28;20029;-76
2020/12/07 07:13:33;;;;;;;23.15;15.48;;;;;;;7.82;81.05;100217.09;5051050;28;20094;-77
2020/12/07 07:15:59;;;;;;;24.52;15.88;;;;;;;7.82;80.85;100217.09;5050533;28;20430;-77
2020/12/07 07:18:25;;;;;;;27.58;15.57;;;;;;;7.83;80.86;100233.13;5049747;28;20048;-77
2020/12/07 07:20:50;;;;;;;26.27;15.70;;;;;;;7.83;80.83;100230.41;5050812;28;20386;-76
2020/12/07 07:23:15;;;;;;;26.17;15.70;;;;;;;7.85;80.52;100228.22;5044465;28;20366;-76
2020/12/07 07:28:36;;;;;;;24.95;14.93;;;;;;;7.83;80.93;100208.69;5039206;28;20145;-77
2020/12/07 07:31:05;;;;;;;21.60;14.65;;;;;;;7.82;80.66;100201.63;5061674;28;20477;-77
2020/12/07 07:33:31;;;;;;;20.58;14.43;;;;;;;7.79;80.70;100202.16;5047229;28;20033;-76
2020/12/07 07:35:56;;;;;;;22.40;14.20;;;;;;;7.77;80.79;100199.75;5033259;28;20103;-77
2020/12/07 07:38:27;;;;;;;23.88;14.60;;;;;;;7.78;80.71;100205.97;5047096;28;20029;-76
2020/12/07 07:40:53;;;;;;;22.50;13.95;;;;;;;7.75;80.68;100199.19;5082174;28;20065;-75
2020/12/07 07:43:18;;;;;;;24.23;14.02;;;;;;;7.71;80.78;100189.13;5051536;28;20474;-76
2020/12/07 07:45:45;;;;;;;22.75;15.07;;;;;;;7.66;80.93;100189.13;5049176;28;20111;-76
2020/12/07 07:59:56;;;;;;;27.60;14.73;;;;;;;7.46;80.87;100182.56;5040311;28;20059;-76
2020/12/07 08:15:56;;;;;;;21.75;13.60;;;;;;;7.39;81.11;100179.28;5037751;28;20053;-72
2020/12/07 08:18:34;;;;;;;24.88;13.15;;;;;;;7.38;80.91;100188.53;5046957;28;20051;-72
2020/12/07 08:21:03;;;;;;;22.52;13.25;;;;;;;7.39;81.17;100186.63;5024278;28;20037;-72
2020/12/07 08:23:30;;;;;;;22.27;14.68;;;;;;;7.42;80.86;100177.94;5072562;28;20108;-72
2020/12/07 08:25:55;;;;;;;22.98;12.52;;;;;;;7.42;80.86;100181.50;5043934;28;20667;-72
2020/12/07 08:28:25;;;;;;;20.95;12.90;;;;;;;7.42;80.78;100167.94;5044492;28;20037;-70
2020/12/07 08:30:57;;;;;;;19.65;13.32;;;;;;;7.39;81.01;100182.00;5046198;28;20059;-72
2020/12/07 08:33:22;;;;;;;21.85;13.00;;;;;;;7.38;81.13;100191.22;5028973;28;20405;-72
2020/12/07 08:35:48;;;;;;;22.40;12.82;;;;;;;7.39;81.15;100186.63;5049331;28;20044;-72
2020/12/07 08:38:39;;;;;;;24.25;14.27;;;;;;;7.39;81.16;100182.00;5050075;28;20029;-72
2020/12/07 08:41:24;;;;;;;20.85;12.45;;;;;;;7.38;80.89;100190.44;5045808;28;20033;-72
2020/12/07 08:43:51;;;;;;;24.98;13.70;;;;;;;7.40;80.74;100188.28;5027138;28;20029;-73
2020/12/07 08:46:19;;;;;;;20.20;12.73;;;;;;;7.45;80.70;100180.97;5041859;28;20108;-72
2020/12/07 08:48:44;;;;;;;22.45;13.13;;;;;;;7.48;81.27;100191.28;5041736;28;20030;-72
2020/12/07 08:51:10;;;;;;;24.20;13.60;;;;;;;7.52;81.20;100188.81;5056633;28;20418;-72
2020/12/07 08:53:36;;;;;;;22.48;12.73;;;;;;;7.55;80.76;100191.00;5043548;28;20489;-72
2020/12/07 08:56:06;;;;;;;21.00;13.30;;;;;;;7.59;81.14;100197.53;5058904;28;20044;-72
2020/12/07 08:58:32;;;;;;;22.60;12.38;;;;;;;7.60;80.99;100195.63;5040561;28;20674;-72
2020/12/07 09:00:59;;;;;;;22.85;12.55;;;;;;;7.60;80.77;100204.56;5041715;28;20025;-73
2020/12/07 09:03:24;;;;;;;25.45;12.63;;;;;;;7.62;80.87;100215.97;5040242;28;20032;-72
2020/12/07 09:05:50;;;;;;;24.92;12.95;;;;;;;7.64;80.77;100199.41;5041119;28;20029;-72
2020/12/07 09:08:15;;;;;;;24.27;13.52;;;;;;;7.68;80.93;100195.09;5043967;28;20025;-72
2020/12/07 09:10:41;;;;;;;22.77;12.57;;;;;;;7.68;80.68;100205.94;5074235;28;20025;-72
2020/12/07 09:13:06;;;;;;;23.38;12.80;;;;;;;7.68;80.85;100200.53;5029004;28;20374;-72
2020/12/07 09:15:32;;;;;;;21.63;12.48;;;;;;;7.71;81.15;100211.66;5044217;28;20021;-72
2020/12/07 09:17:57;;;;;;;25.48;13.05;;;;;;;7.72;80.87;100207.03;5042375;28;20029;-73
2020/12/07 09:20:23;;;;;;;23.30;13.05;;;;;;;7.73;80.57;100222.25;5046612;28;20029;-72
2020/12/07 09:22:48;;;;;;;28.55;14.07;;;;;;;7.75;81.08;100211.94;5028167;28;20025;-72
2020/12/07 09:25:14;;;;;;;24.15;13.02;;;;;;;7.77;80.77;100198.91;5026757;28;20033;-72
2020/12/07 09:27:39;;;;;;;21.70;12.65;;;;;;;7.76;80.54;100208.13;5042484;28;20029;-72
2020/12/07 09:30:05;;;;;;;23.25;13.27;;;;;;;7.75;80.81;100201.91;5036991;28;20028;-73
2020/12/07 09:32:31;;;;;;;20.15;12.45;;;;;;;7.76;80.77;100198.09;5046266;28;20025;-72
2020/12/07 09:34:56;;;;;;;26.88;13.55;;;;;;;7.73;80.63;100197.81;5050247;28;20122;-72
2020/12/07 09:37:22;;;;;;;25.90;13.57;;;;;;;7.72;80.42;100198.88;5044440;28;20056;-72
2020/12/07 09:39:47;;;;;;;23.85;14.20;;;;;;;7.73;80.65;100204.06;5040503;28;20029;-72
2020/12/07 09:42:12;;;;;;;24.73;13.32;;;;;;;7.76;80.49;100175.56;5045228;28;20064;-71
2020/12/07 09:44:38;;;;;;;21.63;13.20;;;;;;;7.74;80.60;100183.16;5085539;28;20039;-72
2020/12/07 09:47:03;;;;;;;21.55;12.50;;;;;;;7.73;80.65;100186.97;5050306;28;20044;-72
2020/12/07 09:49:29;;;;;;;20.42;13.07;;;;;;;7.74;80.60;100194.00;5053743;28;20029;-72
2020/12/07 09:51:54;;;;;;;21.17;13.35;;;;;;;7.75;80.41;100207.31;5049429;28;20021;-72
2020/12/07 09:54:19;;;;;;;20.23;13.50;;;;;;;7.75;80.19;100195.66;5079452;28;20087;-72
2020/12/07 09:56:45;;;;;;;24.55;13.55;;;;;;;7.71;80.22;100200.78;5064535;28;20036;-73
2020/12/07 09:59:10;;;;;;;20.52;12.13;;;;;;;7.71;80.12;100189.94;5046842;28;20029;-72
2020/12/07 10:01:36;;;;;;;22.10;12.88;;;;;;;7.69;80.11;100189.41;5047366;28;20029;-75
2020/12/07 10:04:02;;;;;;;20.27;13.07;;;;;;;7.66;80.22;100189.13;5047127;28;20044;-76
2020/12/07 10:06:28;;;;;;;22.38;13.32;;;;;;;7.63;79.92;100176.09;5047620;28;20025;-76
2020/12/07 10:08:54;;;;;;;20.73;12.57;;;;;;;7.59;79.91;100186.69;5046963;28;20024;-72
2020/12/07 10:11:19;;;;;;;24.95;14.77;;;;;;;7.57;79.97;100194.25;5047429;28;20029;-72
2020/12/07 10:13:46;;;;;;;21.58;13.68;;;;;;;7.54;80.12;100187.47;5049038;28;20482;-72
2020/12/07 10:16:12;;;;;;;21.70;12.93;;;;;;;7.53;80.16;100185.06;5047056;28;20044;-72
2020/12/07 10:18:37;;;;;;;22.38;13.57;;;;;;;7.53;80.18;100194.00;5048035;28;20021;-72
2020/12/07 10:21:03;;;;;;;24.33;14.45;;;;;;;7.55;79.88;100183.66;5077352;28;20322;-72
2020/12/07 10:23:28;;;;;;;24.85;13.73;;;;;;;7.56;79.98;100182.59;5045838;28;20041;-72
2020/12/07 10:25:53;;;;;;;25.80;14.38;;;;;;;7.56;79.76;100170.94;5046028;28;20033;-72
2020/12/07 10:28:19;;;;;;;24.77;13.73;;;;;;;7.53;79.77;100188.56;5046831;28;20028;-72
2020/12/07 10:30:44;;;;;;;22.08;13.27;;;;;;;7.51;80.09;100195.34;5042742;28;20103;-72
2020/12/07 10:33:10;;;;;;;25.25;14.43;;;;;;;7.48;79.92;100185.84;5046390;28;20033;-72
2020/12/07 10:35:36;;;;;;;25.27;14.43;;;;;;;7.46;79.86;100188.00;5043685;28;20067;-72
2020/12/07 10:38:01;;;;;;;21.38;13.95;;;;;;;7.42;79.94;100192.34;5045723;28;20055;-72
2020/12/07 10:40:27;;;;;;;26.85;14.80;;;;;;;7.42;80.23;100196.94;5047121;28;20106;-72
2020/12/07 10:42:52;;;;;;;26.13;14.45;;;;;;;7.40;79.92;100193.69;5045861;28;20073;-72
2020/12/07 10:45:19;;;;;;;23.25;13.82;;;;;;;7.40;79.93;100197.22;5046069;28;20490;-72
2020/12/07 10:47:44;;;;;;;24.13;14.18;;;;;;;7.38;79.77;100196.66;5044997;28;20437;-73
2020/12/07 10:50:10;;;;;;;23.20;13.60;;;;;;;7.38;80.13;100196.66;5043032;28;20024;-74
2020/12/07 10:52:35;;;;;;;24.55;13.18;;;;;;;7.36;79.98;100185.25;5043711;28;20082;-74
2020/12/07 10:55:00;;;;;;;20.33;13.50;;;;;;;7.33;79.89;100185.78;5043646;28;20028;-73
2020/12/07 10:57:26;;;;;;;23.90;12.88;;;;;;;7.34;79.75;100179.31;5043757;28;20032;-74
2020/12/07 10:59:51;;;;;;;22.33;13.40;;;;;;;7.39;80.01;100186.63;5042965;28;20033;-73
2020/12/07 11:02:18;;;;;;;21.35;13.65;;;;;;;7.42;79.75;100184.22;5044781;28;20048;-73
2020/12/07 11:04:44;;;;;;;21.70;12.95;;;;;;;7.42;79.65;100178.78;5041382;28;20025;-74
2020/12/07 11:07:13;;;;;;;19.70;13.50;;;;;;;7.47;79.95;100167.91;5024579;28;20501;-74
2020/12/07 11:09:38;;;;;;;21.60;14.05;;;;;;;7.48;79.40;100175.00;5043581;28;20037;-77
2020/12/07 11:12:11;;;;;;;24.63;13.90;;;;;;;7.48;79.53;100172.28;5044957;28;20047;-76
2020/12/07 11:14:36;;;;;;;21.52;14.32;;;;;;;7.49;79.32;100170.38;5074279;28;20267;-77
2020/12/07 11:17:02;;;;;;;24.95;14.52;;;;;;;7.49;79.55;100163.06;5044757;28;20203;-76
2020/12/07 11:19:27;;;;;;;25.98;13.80;;;;;;;7.47;79.72;100157.06;5050345;28;20433;-76
2020/12/07 11:21:52;;;;;;;21.85;14.15;;;;;;;7.43;79.21;100161.41;5046488;28;20044;-77
2020/12/07 11:24:18;;;;;;;27.35;14.80;;;;;;;7.39;79.47;100178.47;5048824;28;20048;-76
2020/12/07 11:26:43;;;;;;;25.13;14.88;;;;;;;7.35;79.01;100170.09;5049494;28;20050;-76
2020/12/07 11:29:09;;;;;;;23.40;13.45;;;;;;;7.34;79.62;100173.88;5034735;28;20021;-76
2020/12/07 11:31:34;;;;;;;21.75;13.65;;;;;;;7.31;79.41;100166.25;5044777;28;20036;-77
2020/12/07 11:33:59;;;;;;;22.30;13.35;;;;;;;7.28;79.43;100164.09;5029278;28;20045;-77
2020/12/07 11:36:25;;;;;;;20.50;12.63;;;;;;;7.24;79.76;100168.44;5046276;28;20107;-77
2020/12/07 11:39:03;;;;;;;28.35;14.40;;;;;;;7.23;79.21;100172.19;5029743;28;20025;-76
2020/12/07 11:41:42;;;;;;;23.40;13.32;;;;;;;7.23;79.66;100174.91;5047949;28;20029;-76
2020/12/07 11:44:12;;;;;;;20.10;13.32;;;;;;;7.23;79.46;100172.19;5052603;28;20035;-76
2020/12/07 11:46:43;;;;;;;24.73;14.07;;;;;;;7.24;79.33;100176.56;5028931;28;20094;-76